createdAt,value
2019-03-16T00:00:03.155Z,1009.3
2019-03-16T00:01:03.908Z,1009.5
2019-03-16T00:02:02.996Z,1009.4
2019-03-16T00:03:03.468Z,1009.5
2019-03-16T00:04:03.628Z,1009.4
2019-03-16T00:05:03.984Z,1009.6
2019-03-16T00:06:03.746Z,1009.5
2019-03-16T00:07:03.829Z,1009.5
2019-03-16T00:08:03.778Z,1009.5
2019-03-16T00:09:03.375Z,1009.6
2019-03-16T00:10:03.940Z,1009.5
2019-03-16T00:11:03.798Z,1009.5
2019-03-16T00:12:04.782Z,1009.4
2019-03-16T00:13:03.960Z,1009.5
2019-03-16T00:14:03.697Z,1009.5
2019-03-16T00:15:03.001Z,1009.6
2019-03-16T00:16:03.447Z,1009.4
2019-03-16T00:17:03.811Z,1009.5
2019-03-16T00:18:03.923Z,1009.5
2019-03-16T00:19:03.750Z,1009.5
2019-03-16T00:20:03.804Z,1009.5
2019-03-16T00:21:03.719Z,1009.5
2019-03-16T00:22:03.275Z,1009.5
2019-03-16T00:23:03.559Z,1009.4
2019-03-16T00:24:03.269Z,1009.5
2019-03-16T00:25:03.397Z,1009.5
2019-03-16T00:26:03.233Z,1009.5
2019-03-16T00:27:03.234Z,1009.4
2019-03-16T00:28:03.540Z,1009.4
2019-03-16T00:29:03.056Z,1009.4
2019-03-16T00:30:03.127Z,1009.4
2019-03-16T00:31:03.216Z,1009.5
2019-03-16T00:32:14.263Z,1009.5
2019-03-16T00:33:03.125Z,1009.5
2019-03-16T00:34:03.124Z,1009.5
2019-03-16T00:35:03.469Z,1009.4
2019-03-16T00:36:02.918Z,1009.6
2019-03-16T00:37:03.339Z,1009.5
2019-03-16T00:38:02.671Z,1009.6
2019-03-16T00:39:03.120Z,1009.8
2019-03-16T00:40:03.894Z,1009.5
2019-03-16T00:41:03.068Z,1009.5
2019-03-16T00:42:04.051Z,1009.5
2019-03-16T00:43:02.971Z,1009.5
2019-03-16T00:44:03.804Z,1009.7
2019-03-16T00:45:03.740Z,1009.7
2019-03-16T00:46:03.466Z,1009.6
2019-03-16T00:47:03.878Z,1009.5
2019-03-16T00:48:03.870Z,1009.7
2019-03-16T00:49:03.605Z,1009.6
2019-03-16T00:50:03.937Z,1009.7
2019-03-16T00:51:03.464Z,1009.7
2019-03-16T00:52:03.725Z,1009.5
2019-03-16T00:53:03.423Z,1009.5
2019-03-16T00:54:03.952Z,1009.8
2019-03-16T00:55:03.848Z,1009.6
2019-03-16T00:56:03.234Z,1009.5
2019-03-16T00:57:03.939Z,1009.6
2019-03-16T00:58:03.449Z,1009.5
2019-03-16T00:59:03.691Z,1009.5
2019-03-16T01:00:03.401Z,1009.5
2019-03-16T01:01:03.419Z,1009.5
2019-03-16T01:02:02.886Z,1009.5
2019-03-16T01:03:03.591Z,1009.5
2019-03-16T01:04:03.287Z,1009.5
2019-03-16T01:05:03.421Z,1009.5
2019-03-16T01:06:03.089Z,1009.5
2019-03-16T01:07:02.992Z,1009.5
2019-03-16T01:08:03.251Z,1009.5
2019-03-16T01:09:03.983Z,1009.5
2019-03-16T01:10:03.251Z,1009.5
2019-03-16T01:11:03.855Z,1009.5
2019-03-16T01:12:03.123Z,1009.8
2019-03-16T01:13:03.825Z,1009.7
2019-03-16T01:14:02.995Z,1009.8
2019-03-16T01:15:03.861Z,1009.9
2019-03-16T01:16:03.711Z,1009.8
2019-03-16T01:17:03.801Z,1009.7
2019-03-16T01:18:03.854Z,1009.8
2019-03-16T01:19:03.652Z,1009.7
2019-03-16T01:20:03.698Z,1009.7
2019-03-16T01:21:03.603Z,1009.8
2019-03-16T01:22:03.125Z,1009.8
2019-03-16T01:23:03.788Z,1009.8
2019-03-16T01:24:01.998Z,1009.7
2019-03-16T01:25:02.934Z,1009.8
2019-03-16T01:26:03.857Z,1009.6
2019-03-16T01:27:03.772Z,1009.7
2019-03-16T01:28:03.220Z,1009.6
2019-03-16T01:29:03.305Z,1009.6
2019-03-16T01:30:03.464Z,1009.8
2019-03-16T01:31:03.380Z,1009.6
2019-03-16T01:32:03.075Z,1009.6
2019-03-16T01:33:03.050Z,1009.7
2019-03-16T01:34:03.149Z,1009.7
2019-03-16T01:35:03.162Z,1009.7
2019-03-16T01:36:03.382Z,1009.8
2019-03-16T01:37:03.233Z,1009.9
2019-03-16T01:38:03.292Z,1009.8
2019-03-16T01:39:03.186Z,1009.8
2019-03-16T01:40:03.200Z,1009.8
2019-03-16T01:41:03.139Z,1009.8
2019-03-16T01:42:03.720Z,1009.8
2019-03-16T01:43:03.039Z,1009.9
2019-03-16T01:44:03.139Z,1009.9
2019-03-16T01:45:03.107Z,1009.8
2019-03-16T01:46:03.795Z,1009.9
2019-03-16T01:47:02.964Z,1009.8
2019-03-16T01:48:02.887Z,1009.9
2019-03-16T01:49:02.783Z,1009.8
2019-03-16T01:50:03.581Z,1009.8
2019-03-16T01:51:04.025Z,1009.8
2019-03-16T01:52:03.738Z,1009.8
2019-03-16T01:53:03.837Z,1010
2019-03-16T01:54:03.103Z,1010
2019-03-16T01:55:03.012Z,1010
2019-03-16T01:56:03.803Z,1009.9
2019-03-16T01:57:03.815Z,1010
2019-03-16T01:58:03.013Z,1010
2019-03-16T01:59:03.672Z,1010
2019-03-16T02:00:03.112Z,1010.1
2019-03-16T02:01:03.631Z,1009.9
2019-03-16T02:02:03.946Z,1010.1
2019-03-16T02:03:03.503Z,1010
2019-03-16T02:04:03.843Z,1010
2019-03-16T02:05:03.637Z,1010.2
2019-03-16T02:06:03.670Z,1010.1
2019-03-16T02:07:03.471Z,1010
2019-03-16T02:08:04.031Z,1010
2019-03-16T02:09:03.617Z,1010.1
2019-03-16T02:10:03.333Z,1010.1
2019-03-16T02:11:03.130Z,1010
2019-03-16T02:12:03.376Z,1009.9
2019-03-16T02:13:03.291Z,1010.1
2019-03-16T02:14:03.035Z,1010.1
2019-03-16T02:15:03.757Z,1010.2
2019-03-16T02:16:12.025Z,1010.2
2019-03-16T02:17:03.103Z,1010.2
2019-03-16T02:18:03.359Z,1009.9
2019-03-16T02:19:03.355Z,1010.1
2019-03-16T02:20:03.172Z,1010
2019-03-16T02:21:03.924Z,1010
2019-03-16T02:22:02.755Z,1010.1
2019-03-16T02:23:03.174Z,1010.1
2019-03-16T02:24:03.899Z,1010.1
2019-03-16T02:25:03.817Z,1010.1
2019-03-16T02:26:03.090Z,1010.2
2019-03-16T02:27:04.053Z,1010.1
2019-03-16T02:28:03.139Z,1010.1
2019-03-16T02:29:03.353Z,1010.1
2019-03-16T02:30:03.890Z,1010.2
2019-03-16T02:31:03.963Z,1010.2
2019-03-16T02:32:04.009Z,1010
2019-03-16T02:33:14.340Z,1010
2019-03-16T02:34:03.541Z,1010.2
2019-03-16T02:35:03.720Z,1010.1
2019-03-16T02:36:03.618Z,1010.1
2019-03-16T02:37:03.117Z,1010.2
2019-03-16T02:38:03.351Z,1010.2
2019-03-16T02:39:03.804Z,1010.2
2019-03-16T02:40:03.542Z,1010.2
2019-03-16T02:41:03.447Z,1010.2
2019-03-16T02:42:02.980Z,1010.1
2019-03-16T02:43:03.435Z,1010.3
2019-03-16T02:44:03.403Z,1010.3
2019-03-16T02:45:03.241Z,1010.3
2019-03-16T02:46:02.994Z,1010.2
2019-03-16T02:47:02.870Z,1010.2
2019-03-16T02:48:02.937Z,1010.2
2019-03-16T02:49:03.159Z,1010.2
2019-03-16T02:50:02.600Z,1010.2
2019-03-16T02:51:03.675Z,1010.2
2019-03-16T02:52:03.901Z,1010.2
2019-03-16T02:53:03.989Z,1010.4
2019-03-16T02:54:03.784Z,1010.3
2019-03-16T02:55:03.929Z,1010.5
2019-03-16T02:56:03.785Z,1010.5
2019-03-16T02:57:03.973Z,1010.3
2019-03-16T02:58:03.692Z,1010.4
2019-03-16T02:59:03.735Z,1010.5
2019-03-16T03:00:03.733Z,1010.4
2019-03-16T03:01:03.714Z,1010.5
2019-03-16T03:02:03.955Z,1010.4
2019-03-16T03:03:03.489Z,1010.6
2019-03-16T03:04:03.811Z,1010.3
2019-03-16T03:05:03.255Z,1010.5
2019-03-16T03:06:03.602Z,1010.4
2019-03-16T03:07:03.532Z,1010.3
2019-03-16T03:08:03.194Z,1010.4
2019-03-16T03:09:03.439Z,1010.7
2019-03-16T03:10:03.463Z,1010.6
2019-03-16T03:11:03.101Z,1010.6
2019-03-16T03:12:03.292Z,1010.4
2019-03-16T03:13:03.074Z,1010.4
2019-03-16T03:14:03.667Z,1010.8
2019-03-16T03:15:04.168Z,1010.8
2019-03-16T03:16:03.179Z,1010.7
2019-03-16T03:17:03.115Z,1010.7
2019-03-16T03:18:03.246Z,1010.6
2019-03-16T03:19:03.864Z,1010.6
2019-03-16T03:20:02.708Z,1010.7
2019-03-16T03:21:03.068Z,1010.6
2019-03-16T03:22:03.378Z,1010.6
2019-03-16T03:23:03.880Z,1010.5
2019-03-16T03:24:03.493Z,1010.3
2019-03-16T03:25:04.176Z,1010.7
2019-03-16T03:26:03.657Z,1010.7
2019-03-16T03:27:03.925Z,1010.7
2019-03-16T03:28:03.879Z,1010.7
2019-03-16T03:29:03.854Z,1010.8
2019-03-16T03:30:03.696Z,1010.7
2019-03-16T03:31:03.832Z,1010.8
2019-03-16T03:32:03.898Z,1010.6
2019-03-16T03:33:03.676Z,1010.7
2019-03-16T03:34:03.831Z,1010.8
2019-03-16T03:35:03.861Z,1010.8
2019-03-16T03:36:03.930Z,1010.7
2019-03-16T03:37:03.308Z,1010.8
2019-03-16T03:38:03.560Z,1010.7
2019-03-16T03:39:03.509Z,1010.8
2019-03-16T03:40:03.621Z,1010.9
2019-03-16T03:41:03.231Z,1010.7
2019-03-16T03:42:03.235Z,1010.9
2019-03-16T03:43:02.734Z,1010.9
2019-03-16T03:44:03.157Z,1010.9
2019-03-16T03:45:03.248Z,1010.9
2019-03-16T03:46:03.104Z,1010.9
2019-03-16T03:47:04.012Z,1011.2
2019-03-16T03:48:03.504Z,1011.2
2019-03-16T03:49:02.925Z,1011.1
2019-03-16T03:50:03.222Z,1011.2
2019-03-16T03:51:03.232Z,1011.1
2019-03-16T03:52:02.732Z,1011.2
2019-03-16T03:53:03.253Z,1011.2
2019-03-16T03:54:03.853Z,1011.2
2019-03-16T03:55:03.158Z,1011.2
2019-03-16T03:56:03.855Z,1011.3
2019-03-16T03:57:03.860Z,1011.4
2019-03-16T03:58:03.775Z,1011.2
2019-03-16T03:59:03.995Z,1011.1
2019-03-16T04:00:04.003Z,1011.1
2019-03-16T04:01:03.075Z,1011.1
2019-03-16T04:02:03.828Z,1011.3
2019-03-16T04:03:03.786Z,1011.2
2019-03-16T04:04:16.615Z,1011.2
2019-03-16T04:05:03.598Z,1011.1
2019-03-16T04:06:03.616Z,1011.2
2019-03-16T04:07:03.414Z,1011.1
2019-03-16T04:08:04.246Z,1011.2
2019-03-16T04:09:03.015Z,1011.3
2019-03-16T04:10:03.651Z,1011.3
2019-03-16T04:11:03.202Z,1011.2
2019-03-16T04:12:03.106Z,1011.2
2019-03-16T04:13:03.449Z,1011.2
2019-03-16T04:14:03.298Z,1011.2
2019-03-16T04:15:03.554Z,1011.3
2019-03-16T04:16:03.311Z,1011.2
2019-03-16T04:17:03.221Z,1011.2
2019-03-16T04:18:03.001Z,1011.2
2019-03-16T04:19:03.240Z,1011.2
2019-03-16T04:20:03.174Z,1011.3
2019-03-16T04:21:02.948Z,1011.3
2019-03-16T04:22:03.190Z,1011.3
2019-03-16T04:23:03.456Z,1011.3
2019-03-16T04:24:03.071Z,1011.2
2019-03-16T04:25:04.183Z,1011.4
2019-03-16T04:26:04.018Z,1011.2
2019-03-16T04:27:17.398Z,1011.3
2019-03-16T04:28:03.522Z,1011.3
2019-03-16T04:29:03.885Z,1011.4
2019-03-16T04:30:03.714Z,1011.4
2019-03-16T04:31:03.619Z,1011.4
2019-03-16T04:32:03.086Z,1011.3
2019-03-16T04:33:03.655Z,1011.3
2019-03-16T04:34:03.912Z,1011.4
2019-03-16T04:35:03.946Z,1011.4
2019-03-16T04:36:04.078Z,1011.3
2019-03-16T04:37:03.649Z,1011.3
2019-03-16T04:38:03.612Z,1011.3
2019-03-16T04:39:03.517Z,1011.3
2019-03-16T04:40:03.817Z,1011.4
2019-03-16T04:41:03.359Z,1011.4
2019-03-16T04:42:03.175Z,1011.3
2019-03-16T04:43:03.803Z,1011.3
2019-03-16T04:44:03.414Z,1011.3
2019-03-16T04:45:02.975Z,1011.3
2019-03-16T04:46:03.344Z,1011.5
2019-03-16T04:47:03.464Z,1011.3
2019-03-16T04:48:02.874Z,1011.3
2019-03-16T04:49:03.398Z,1011.4
2019-03-16T04:50:03.439Z,1011.5
2019-03-16T04:51:03.320Z,1011.4
2019-03-16T04:52:03.049Z,1011.5
2019-03-16T04:53:03.113Z,1011.5
2019-03-16T04:54:03.230Z,1011.4
2019-03-16T04:55:03.284Z,1011.4
2019-03-16T04:56:03.284Z,1011.5
2019-03-16T04:57:02.922Z,1011.4
2019-03-16T04:58:03.223Z,1011.4
2019-03-16T04:59:03.026Z,1011.6
2019-03-16T05:00:04.129Z,1011.4
2019-03-16T05:01:04.049Z,1011.5
2019-03-16T05:02:03.956Z,1011.6
2019-03-16T05:03:03.722Z,1011.5
2019-03-16T05:04:03.158Z,1011.6
2019-03-16T05:05:03.940Z,1011.6
2019-03-16T05:06:03.114Z,1011.5
2019-03-16T05:07:03.914Z,1011.5
2019-03-16T05:08:03.845Z,1011.4
2019-03-16T05:09:03.684Z,1011.5
2019-03-16T05:10:07.584Z,1011.4
2019-03-16T05:11:04.127Z,1011.4
2019-03-16T05:12:03.346Z,1011.5
2019-03-16T05:13:03.283Z,1011.5
2019-03-16T05:14:03.846Z,1011.6
2019-03-16T05:15:03.643Z,1011.4
2019-03-16T05:16:03.375Z,1011.5
2019-03-16T05:17:03.751Z,1011.5
2019-03-16T05:18:03.385Z,1011.5
2019-03-16T05:19:03.493Z,1011.4
2019-03-16T05:20:03.483Z,1011.7
2019-03-16T05:21:03.196Z,1011.6
2019-03-16T05:22:03.485Z,1011.6
2019-03-16T05:23:03.139Z,1011.7
2019-03-16T05:24:03.423Z,1011.6
2019-03-16T05:25:03.377Z,1011.7
2019-03-16T05:26:03.107Z,1011.6
2019-03-16T05:27:03.207Z,1011.7
2019-03-16T05:28:03.311Z,1011.7
2019-03-16T05:29:03.202Z,1011.7
2019-03-16T05:30:03.363Z,1011.8
2019-03-16T05:31:03.080Z,1011.7
2019-03-16T05:32:03.985Z,1011.7
2019-03-16T05:33:04.011Z,1011.7
2019-03-16T05:34:03.537Z,1011.7
2019-03-16T05:35:04.070Z,1011.7
2019-03-16T05:36:03.509Z,1011.8
2019-03-16T05:37:03.769Z,1011.7
2019-03-16T05:38:03.873Z,1011.8
2019-03-16T05:39:03.751Z,1011.8
2019-03-16T05:40:03.553Z,1011.7
2019-03-16T05:41:03.635Z,1011.8
2019-03-16T05:42:05.943Z,1011.8
2019-03-16T05:43:03.928Z,1011.9
2019-03-16T05:44:03.362Z,1011.7
2019-03-16T05:45:03.550Z,1011.8
2019-03-16T05:46:03.240Z,1011.9
2019-03-16T05:47:02.982Z,1011.8
2019-03-16T05:48:03.434Z,1011.9
2019-03-16T05:49:03.381Z,1011.7
2019-03-16T05:50:03.186Z,1011.8
2019-03-16T05:51:03.106Z,1011.8
2019-03-16T05:52:03.033Z,1011.7
2019-03-16T05:53:03.417Z,1011.8
2019-03-16T05:54:03.370Z,1011.8
2019-03-16T05:55:03.275Z,1011.8
2019-03-16T05:56:03.407Z,1011.8
2019-03-16T05:57:03.136Z,1011.9
2019-03-16T05:58:03.152Z,1011.8
2019-03-16T05:59:02.944Z,1011.8
2019-03-16T06:00:03.225Z,1011.9
2019-03-16T06:01:03.020Z,1011.9
2019-03-16T06:02:02.785Z,1011.8
2019-03-16T06:03:03.113Z,1011.9
2019-03-16T06:04:03.979Z,1011.7
2019-03-16T06:05:11.889Z,1011.7
2019-03-16T06:06:03.867Z,1011.7
2019-03-16T06:07:03.709Z,1011.8
2019-03-16T06:08:03.697Z,1011.8
2019-03-16T06:09:03.687Z,1011.7
2019-03-16T06:10:03.644Z,1011.9
2019-03-16T06:11:03.523Z,1011.9
2019-03-16T06:12:03.792Z,1011.8
2019-03-16T06:13:03.821Z,1012
2019-03-16T06:14:03.703Z,1012
2019-03-16T06:15:03.566Z,1011.9
2019-03-16T06:16:03.671Z,1011.9
2019-03-16T06:17:03.603Z,1012
2019-03-16T06:18:03.211Z,1011.9
2019-03-16T06:19:03.357Z,1011.9
2019-03-16T06:20:03.795Z,1011.9
2019-03-16T06:21:03.508Z,1011.8
2019-03-16T06:22:03.471Z,1011.7
2019-03-16T06:23:03.512Z,1011.7
2019-03-16T06:24:03.415Z,1011.7
2019-03-16T06:25:03.534Z,1011.8
2019-03-16T06:26:03.231Z,1011.8
2019-03-16T06:27:03.401Z,1011.8
2019-03-16T06:28:03.277Z,1011.8
2019-03-16T06:29:03.577Z,1011.8
2019-03-16T06:30:03.423Z,1011.9
2019-03-16T06:31:03.371Z,1011.9
2019-03-16T06:32:03.011Z,1011.9
2019-03-16T06:33:03.499Z,1011.8
2019-03-16T06:34:03.109Z,1011.9
2019-03-16T06:35:03.374Z,1011.8
2019-03-16T06:36:03.070Z,1012
2019-03-16T06:37:03.064Z,1011.9
2019-03-16T06:38:03.615Z,1012
2019-03-16T06:39:03.929Z,1012
2019-03-16T06:40:03.123Z,1012
2019-03-16T06:41:03.546Z,1012
2019-03-16T06:42:03.074Z,1011.9
2019-03-16T06:43:03.954Z,1012
2019-03-16T06:44:04.261Z,1012.1
2019-03-16T06:45:03.791Z,1012
2019-03-16T06:46:03.241Z,1012
2019-03-16T06:47:03.951Z,1012.1
2019-03-16T06:48:03.708Z,1012.2
2019-03-16T06:49:03.548Z,1012.2
2019-03-16T06:50:03.519Z,1012.1
2019-03-16T06:51:03.826Z,1012.2
2019-03-16T06:52:03.601Z,1012.2
2019-03-16T06:53:03.468Z,1012.2
2019-03-16T06:54:03.490Z,1012.2
2019-03-16T06:55:03.676Z,1012.2
2019-03-16T06:56:03.344Z,1012.3
2019-03-16T06:57:03.232Z,1012.3
2019-03-16T06:58:03.585Z,1012.3
2019-03-16T06:59:03.799Z,1012.2
2019-03-16T07:00:03.733Z,1012.3
2019-03-16T07:01:03.407Z,1012.3
2019-03-16T07:02:03.603Z,1012.3
2019-03-16T07:03:03.427Z,1012.3
2019-03-16T07:04:03.777Z,1012.2
2019-03-16T07:05:03.582Z,1012.3
2019-03-16T07:06:03.556Z,1012.3
2019-03-16T07:07:03.189Z,1012.3
2019-03-16T07:08:03.771Z,1012.3
2019-03-16T07:09:03.396Z,1012.3
2019-03-16T07:10:03.699Z,1012.3
2019-03-16T07:11:03.445Z,1012.4
2019-03-16T07:12:03.731Z,1012.3
2019-03-16T07:13:03.058Z,1012.4
2019-03-16T07:14:03.497Z,1012.3
2019-03-16T07:15:03.624Z,1012.2
2019-03-16T07:16:03.250Z,1012.4
2019-03-16T07:17:03.365Z,1012.3
2019-03-16T07:18:03.376Z,1012.3
2019-03-16T07:19:03.443Z,1012.6
2019-03-16T07:20:03.297Z,1012.4
2019-03-16T07:21:03.519Z,1012.5
2019-03-16T07:22:03.098Z,1012.3
2019-03-16T07:23:03.174Z,1012.5
2019-03-16T07:24:03.397Z,1012.4
2019-03-16T07:25:04.094Z,1012.4
2019-03-16T07:26:15.749Z,1012.4
2019-03-16T07:27:03.756Z,1012.3
2019-03-16T07:28:03.045Z,1012.4
2019-03-16T07:29:03.423Z,1012.5
2019-03-16T07:30:02.911Z,1012.4
2019-03-16T07:31:03.560Z,1012.4
2019-03-16T07:32:03.435Z,1012.3
2019-03-16T07:33:03.933Z,1012.3
2019-03-16T07:34:03.200Z,1012.2
2019-03-16T07:35:03.978Z,1012.3
2019-03-16T07:36:03.019Z,1012.3
2019-03-16T07:37:03.892Z,1012.2
2019-03-16T07:38:03.722Z,1012.4
2019-03-16T07:39:03.907Z,1012.4
2019-03-16T07:40:03.757Z,1012.3
2019-03-16T07:41:03.859Z,1012.4
2019-03-16T07:42:03.747Z,1012.5
2019-03-16T07:43:03.778Z,1012.4
2019-03-16T07:44:03.497Z,1012.3
2019-03-16T07:45:09.569Z,1012.4
2019-03-16T07:46:03.733Z,1012.5
2019-03-16T07:47:03.668Z,1012.4
2019-03-16T07:48:04.119Z,1012.5
2019-03-16T07:49:03.846Z,1012.6
2019-03-16T07:50:03.688Z,1012.5
2019-03-16T07:51:03.295Z,1012.5
2019-03-16T07:52:03.060Z,1012.5
2019-03-16T07:53:03.202Z,1012.5
2019-03-16T07:54:03.429Z,1012.6
2019-03-16T07:55:03.424Z,1012.6
2019-03-16T07:56:03.332Z,1012.6
2019-03-16T07:57:03.181Z,1012.5
2019-03-16T07:58:03.087Z,1012.5
2019-03-16T07:59:03.301Z,1012.7
2019-03-16T08:00:03.170Z,1012.6
2019-03-16T08:01:04.145Z,1012.5
2019-03-16T08:02:03.086Z,1012.6
2019-03-16T08:03:03.080Z,1012.5
2019-03-16T08:04:03.846Z,1012.6
2019-03-16T08:05:19.782Z,1012.5
2019-03-16T08:06:03.562Z,1012.5
2019-03-16T08:07:03.584Z,1012.5
2019-03-16T08:08:03.505Z,1012.6
2019-03-16T08:09:04.340Z,1012.6
2019-03-16T08:10:03.910Z,1012.6
2019-03-16T08:11:03.879Z,1012.5
2019-03-16T08:12:03.748Z,1012.6
2019-03-16T08:13:04.069Z,1012.7
2019-03-16T08:14:03.945Z,1012.7
2019-03-16T08:15:03.935Z,1012.6
2019-03-16T08:16:03.697Z,1012.7
2019-03-16T08:17:03.328Z,1012.7
2019-03-16T08:18:03.553Z,1012.6
2019-03-16T08:19:03.526Z,1012.7
2019-03-16T08:20:03.704Z,1012.7
2019-03-16T08:21:03.731Z,1012.7
2019-03-16T08:22:03.309Z,1012.8
2019-03-16T08:23:03.620Z,1012.7
2019-03-16T08:24:03.620Z,1012.9
2019-03-16T08:25:03.669Z,1012.8
2019-03-16T08:26:03.574Z,1012.8
2019-03-16T08:27:03.605Z,1012.8
2019-03-16T08:28:03.291Z,1012.9
2019-03-16T08:29:03.420Z,1012.9
2019-03-16T08:30:03.530Z,1012.7
2019-03-16T08:31:03.515Z,1012.9
2019-03-16T08:32:03.125Z,1012.7
2019-03-16T08:33:03.115Z,1012.7
2019-03-16T08:34:03.242Z,1012.8
2019-03-16T08:35:03.394Z,1012.8
2019-03-16T08:36:03.112Z,1012.8
2019-03-16T08:37:03.195Z,1012.9
2019-03-16T08:38:03.140Z,1012.9
2019-03-16T08:39:03.279Z,1012.9
2019-03-16T08:40:02.992Z,1012.9
2019-03-16T08:41:03.165Z,1013
2019-03-16T08:42:03.092Z,1012.9
2019-03-16T08:43:03.709Z,1012.8
2019-03-16T08:44:03.986Z,1012.9
2019-03-16T08:45:03.712Z,1012.9
2019-03-16T08:46:03.806Z,1012.9
2019-03-16T08:47:03.622Z,1012.9
2019-03-16T08:48:03.729Z,1013
2019-03-16T08:49:03.259Z,1013
2019-03-16T08:50:03.716Z,1013
2019-03-16T08:51:03.477Z,1012.9
2019-03-16T08:52:03.590Z,1013
2019-03-16T08:53:03.547Z,1013
2019-03-16T08:54:03.719Z,1013
2019-03-16T08:55:03.566Z,1013
2019-03-16T08:56:03.302Z,1013.1
2019-03-16T08:57:03.868Z,1013.2
2019-03-16T08:58:06.873Z,1013.2
2019-03-16T08:59:03.609Z,1013.1
2019-03-16T09:00:03.643Z,1013.1
2019-03-16T09:01:03.307Z,1013.1
2019-03-16T09:02:03.030Z,1013
2019-03-16T09:03:03.386Z,1013.1
2019-03-16T09:04:03.258Z,1013
2019-03-16T09:05:03.177Z,1013
2019-03-16T09:06:02.844Z,1013.2
2019-03-16T09:07:03.564Z,1013.1
2019-03-16T09:08:03.278Z,1013.2
2019-03-16T09:09:03.170Z,1013.3
2019-03-16T09:10:03.390Z,1013.2
2019-03-16T09:11:04.050Z,1013.2
2019-03-16T09:12:03.341Z,1013.2
2019-03-16T09:13:03.219Z,1013.2
2019-03-16T09:14:03.099Z,1013.2
2019-03-16T09:15:03.991Z,1013.3
2019-03-16T09:16:03.117Z,1013.3
2019-03-16T09:17:04.041Z,1013.4
2019-03-16T09:18:03.622Z,1013.4
2019-03-16T09:19:03.771Z,1013.4
2019-03-16T09:20:03.613Z,1013.2
2019-03-16T09:21:03.876Z,1013.4
2019-03-16T09:22:03.946Z,1013.3
2019-03-16T09:23:03.971Z,1013.4
2019-03-16T09:24:03.836Z,1013.4
2019-03-16T09:25:04.077Z,1013.4
2019-03-16T09:26:03.675Z,1013.4
2019-03-16T09:27:03.756Z,1013.4
2019-03-16T09:28:03.631Z,1013.4
2019-03-16T09:29:15.790Z,1013.6
2019-03-16T09:30:03.701Z,1013.5
2019-03-16T09:31:03.556Z,1013.5
2019-03-16T09:32:03.610Z,1013.5
2019-03-16T09:33:04.053Z,1013.5
2019-03-16T09:34:03.477Z,1013.5
2019-03-16T09:35:03.618Z,1013.5
2019-03-16T09:36:03.648Z,1013.4
2019-03-16T09:37:03.531Z,1013.4
2019-03-16T09:38:05.820Z,1013.4
2019-03-16T09:39:03.506Z,1013.4
2019-03-16T09:40:03.606Z,1013.5
2019-03-16T09:41:03.579Z,1013.5
2019-03-16T09:42:03.463Z,1013.5
2019-03-16T09:43:03.345Z,1013.4
2019-03-16T09:44:03.435Z,1013.4
2019-03-16T09:45:03.606Z,1013.4
2019-03-16T09:46:03.179Z,1013.4
2019-03-16T09:47:03.212Z,1013.4
2019-03-16T09:48:02.999Z,1013.4
2019-03-16T09:49:03.442Z,1013.5
2019-03-16T09:50:03.275Z,1013.4
2019-03-16T09:51:03.169Z,1013.5
2019-03-16T09:52:03.171Z,1013.3
2019-03-16T09:53:03.343Z,1013.4
2019-03-16T09:54:03.017Z,1013.3
2019-03-16T09:55:04.085Z,1013.3
2019-03-16T09:56:03.579Z,1013.4
2019-03-16T09:57:03.877Z,1013.4
2019-03-16T09:58:03.763Z,1013.2
2019-03-16T09:59:03.813Z,1013.4
2019-03-16T10:00:03.973Z,1013.4
2019-03-16T10:01:04.030Z,1013.3
2019-03-16T10:02:03.858Z,1013.5
2019-03-16T10:03:03.675Z,1013.5
2019-03-16T10:04:03.941Z,1013.4
2019-03-16T10:05:03.328Z,1013.4
2019-03-16T10:06:03.805Z,1013.4
2019-03-16T10:07:03.901Z,1013.3
2019-03-16T10:08:03.466Z,1013.3
2019-03-16T10:09:03.956Z,1013.4
2019-03-16T10:10:03.696Z,1013.3
2019-03-16T10:11:03.732Z,1013.3
2019-03-16T10:12:03.345Z,1013.3
2019-03-16T10:13:02.942Z,1013.2
2019-03-16T10:14:03.199Z,1013.1
2019-03-16T10:15:03.571Z,1013.1
2019-03-16T10:16:03.335Z,1013.2
2019-03-16T10:17:03.339Z,1013.1
2019-03-16T10:18:03.069Z,1013.1
2019-03-16T10:19:03.331Z,1013.1
2019-03-16T10:20:03.247Z,1013.1
2019-03-16T10:21:03.212Z,1013.1
2019-03-16T10:22:03.474Z,1013.2
2019-03-16T10:23:03.561Z,1013.2
2019-03-16T10:24:03.242Z,1013
2019-03-16T10:25:03.133Z,1013.2
2019-03-16T10:26:03.821Z,1013.2
2019-03-16T10:27:03.173Z,1013.3
2019-03-16T10:28:03.431Z,1013.3
2019-03-16T10:29:02.859Z,1013.2
2019-03-16T10:30:03.950Z,1013.3
2019-03-16T10:31:03.832Z,1013.2
2019-03-16T10:32:03.207Z,1013.2
2019-03-16T10:33:04.081Z,1013.3
2019-03-16T10:34:03.871Z,1013.2
2019-03-16T10:35:03.069Z,1013.2
2019-03-16T10:36:03.887Z,1013.2
2019-03-16T10:37:03.491Z,1013.2
2019-03-16T10:38:03.834Z,1013.2
2019-03-16T10:39:03.547Z,1013.1
2019-03-16T10:40:03.612Z,1013.1
2019-03-16T10:41:03.859Z,1013.1
2019-03-16T10:42:03.588Z,1013
2019-03-16T10:43:03.531Z,1013
2019-03-16T10:44:03.917Z,1013.1
2019-03-16T10:45:03.113Z,1013.1
2019-03-16T10:46:03.589Z,1013.1
2019-03-16T10:47:03.223Z,1013.1
2019-03-16T10:48:03.687Z,1013
2019-03-16T10:49:03.935Z,1013
2019-03-16T10:50:03.624Z,1013
2019-03-16T10:51:03.447Z,1013.1
2019-03-16T10:52:03.663Z,1013.2
2019-03-16T10:53:03.516Z,1013.2
2019-03-16T10:54:03.341Z,1013.1
2019-03-16T10:55:03.346Z,1013.1
2019-03-16T10:56:03.224Z,1013.1
2019-03-16T10:57:04.911Z,1013.2
2019-03-16T10:58:03.265Z,1013.1
2019-03-16T10:59:03.727Z,1013.1
2019-03-16T11:00:03.362Z,1013.2
2019-03-16T11:01:03.588Z,1013.1
2019-03-16T11:02:03.410Z,1013.1
2019-03-16T11:03:03.402Z,1013.1
2019-03-16T11:04:03.450Z,1013.1
2019-03-16T11:05:03.275Z,1013
2019-03-16T11:06:03.111Z,1013
2019-03-16T11:07:03.289Z,1013
2019-03-16T11:08:02.892Z,1013.1
2019-03-16T11:09:03.219Z,1012.9
2019-03-16T11:10:03.288Z,1013
2019-03-16T11:11:02.958Z,1013.1
2019-03-16T11:12:02.963Z,1013.1
2019-03-16T11:13:03.799Z,1013.1
2019-03-16T11:14:03.544Z,1013.1
2019-03-16T11:15:04.188Z,1013.1
2019-03-16T11:16:03.799Z,1013.1
2019-03-16T11:17:03.855Z,1013.1
2019-03-16T11:18:03.976Z,1012.9
2019-03-16T11:19:03.898Z,1013.1
2019-03-16T11:20:03.783Z,1013.2
2019-03-16T11:21:03.731Z,1013.1
2019-03-16T11:22:03.714Z,1013.1
2019-03-16T11:23:03.115Z,1013
2019-03-16T11:24:03.635Z,1013.1
2019-03-16T11:25:04.083Z,1013.2
2019-03-16T11:26:03.705Z,1013
2019-03-16T11:27:03.631Z,1013.1
2019-03-16T11:28:03.667Z,1013.1
2019-03-16T11:29:09.839Z,1013
2019-03-16T11:30:03.772Z,1013
2019-03-16T11:31:03.793Z,1012.9
2019-03-16T11:32:03.761Z,1013
2019-03-16T11:33:03.608Z,1013
2019-03-16T11:34:03.798Z,1012.9
2019-03-16T11:35:03.609Z,1013
2019-03-16T11:36:03.440Z,1013
2019-03-16T11:37:03.463Z,1012.9
2019-03-16T11:38:03.393Z,1012.9
2019-03-16T11:39:03.414Z,1013
2019-03-16T11:40:03.394Z,1013
2019-03-16T11:41:03.634Z,1013.1
2019-03-16T11:42:03.030Z,1013
2019-03-16T11:43:03.401Z,1013
2019-03-16T11:44:03.236Z,1012.9
2019-03-16T11:45:03.285Z,1013
2019-03-16T11:46:03.208Z,1013
2019-03-16T11:47:03.088Z,1013
2019-03-16T11:48:03.027Z,1012.9
2019-03-16T11:49:03.239Z,1013.1
2019-03-16T11:50:03.605Z,1012.9
2019-03-16T11:51:03.200Z,1013
2019-03-16T11:52:03.952Z,1013
2019-03-16T11:53:03.754Z,1013.1
2019-03-16T11:54:03.211Z,1013.1
2019-03-16T11:55:03.876Z,1013.1
2019-03-16T11:56:04.022Z,1013.1
2019-03-16T11:57:03.671Z,1013.1
2019-03-16T11:58:03.029Z,1013.1
2019-03-16T11:59:03.555Z,1013
2019-03-16T12:00:04.036Z,1013.1
2019-03-16T12:01:03.996Z,1013.1
2019-03-16T12:02:06.274Z,1013.1
2019-03-16T12:03:03.812Z,1013.2
2019-03-16T12:04:03.856Z,1013.2
2019-03-16T12:05:04.019Z,1013.1
2019-03-16T12:06:03.728Z,1013.2
2019-03-16T12:07:03.817Z,1013.2
2019-03-16T12:08:03.500Z,1013.1
2019-03-16T12:09:03.679Z,1013.2
2019-03-16T12:10:03.687Z,1013.1
2019-03-16T12:11:03.500Z,1013.2
2019-03-16T12:12:03.106Z,1013.1
2019-03-16T12:13:03.235Z,1013.1
2019-03-16T12:14:03.579Z,1013
2019-03-16T12:15:03.718Z,1013.1
2019-03-16T12:16:03.643Z,1013
2019-03-16T12:17:03.574Z,1013
2019-03-16T12:18:03.714Z,1013
2019-03-16T12:19:03.131Z,1013
2019-03-16T12:20:03.637Z,1012.9
2019-03-16T12:21:03.294Z,1012.9
2019-03-16T12:22:03.640Z,1012.8
2019-03-16T12:23:03.295Z,1012.8
2019-03-16T12:24:03.290Z,1012.9
2019-03-16T12:25:03.320Z,1012.9
2019-03-16T12:26:02.774Z,1012.7
2019-03-16T12:27:03.251Z,1012.7
2019-03-16T12:28:03.325Z,1012.8
2019-03-16T12:29:03.277Z,1012.7
2019-03-16T12:30:03.463Z,1012.6
2019-03-16T12:31:03.115Z,1012.7
2019-03-16T12:32:03.027Z,1012.5